createdAt,value
2019-05-11T00:00:15.321Z,10.30
2019-05-11T00:02:44.009Z,10.30
2019-05-11T00:05:12.623Z,10.30
2019-05-11T00:07:41.286Z,10.20
2019-05-11T00:10:09.895Z,10.20
2019-05-11T00:12:38.511Z,10.20
2019-05-11T00:15:07.165Z,10.20
2019-05-11T00:17:35.870Z,10.20
2019-05-11T00:20:07.829Z,10.10
2019-05-11T00:22:36.709Z,10.10
2019-05-11T00:25:06.407Z,10.10
2019-05-11T00:27:35.080Z,10.00
2019-05-11T00:30:04.151Z,10.00
2019-05-11T00:32:33.352Z,10.00
2019-05-11T00:35:02.338Z,9.90
2019-05-11T00:37:31.041Z,9.90
2019-05-11T00:40:13.295Z,9.80
2019-05-11T00:42:29.990Z,9.80
2019-05-11T00:44:58.593Z,9.70
2019-05-11T00:47:27.183Z,9.70
2019-05-11T00:49:55.802Z,9.70
2019-05-11T00:52:24.409Z,9.70
2019-05-11T00:54:53.010Z,9.60
2019-05-11T00:57:21.619Z,9.60
2019-05-11T00:59:50.227Z,9.60
2019-05-11T01:02:18.836Z,9.60
2019-05-11T01:04:47.462Z,9.60
2019-05-11T01:07:17.058Z,9.60
2019-05-11T01:09:45.728Z,9.60
2019-05-11T01:12:14.414Z,9.50
2019-05-11T01:14:43.100Z,9.50
2019-05-11T01:17:11.698Z,9.50
2019-05-11T01:19:40.404Z,9.50
2019-05-11T01:22:09.014Z,9.50
2019-05-11T01:24:37.633Z,9.50
2019-05-11T01:27:06.308Z,9.40
2019-05-11T01:29:34.951Z,9.40
2019-05-11T01:32:03.599Z,9.40
2019-05-11T01:34:32.178Z,9.40
2019-05-11T01:37:00.849Z,9.30
2019-05-11T01:39:29.470Z,9.30
2019-05-11T01:41:58.078Z,9.20
2019-05-11T01:44:26.726Z,9.20
2019-05-11T01:46:55.413Z,9.20
2019-05-11T01:49:24.184Z,9.20
2019-05-11T01:51:52.862Z,9.20
2019-05-11T01:54:21.472Z,9.20
2019-05-11T01:56:50.160Z,9.10
2019-05-11T01:59:18.844Z,9.00
2019-05-11T02:01:47.534Z,8.80
2019-05-11T02:04:16.132Z,8.70
2019-05-11T02:06:44.827Z,8.70
2019-05-11T02:09:13.532Z,8.70
2019-05-11T02:11:42.201Z,8.70
2019-05-11T02:14:10.888Z,8.80
2019-05-11T02:16:39.574Z,8.80
2019-05-11T02:19:08.414Z,8.80
2019-05-11T02:21:37.057Z,8.80
2019-05-11T02:24:05.712Z,8.80
2019-05-11T02:26:34.305Z,8.80
2019-05-11T02:29:02.949Z,8.80
2019-05-11T02:31:31.560Z,8.80
2019-05-11T02:34:00.190Z,8.80
2019-05-11T02:36:28.837Z,8.80
2019-05-11T02:38:57.524Z,8.80
2019-05-11T02:41:36.145Z,8.80
2019-05-11T02:43:56.509Z,8.80
2019-05-11T02:46:25.199Z,8.80
2019-05-11T02:48:53.886Z,8.80
2019-05-11T02:51:22.607Z,8.70
2019-05-11T02:53:51.331Z,8.70
2019-05-11T02:56:20.023Z,8.70
2019-05-11T02:58:48.641Z,8.60
2019-05-11T03:01:17.391Z,8.60
2019-05-11T03:03:46.141Z,8.60
2019-05-11T03:06:14.766Z,8.60
2019-05-11T03:08:43.362Z,8.60
2019-05-11T03:11:11.976Z,8.50
2019-05-11T03:13:40.607Z,8.50
2019-05-11T03:16:09.283Z,8.50
2019-05-11T03:18:37.968Z,8.50
2019-05-11T03:21:06.694Z,8.50
2019-05-11T03:23:35.416Z,8.50
2019-05-11T03:26:04.181Z,8.50
2019-05-11T03:28:32.867Z,8.60
2019-05-11T03:31:01.499Z,8.60
2019-05-11T03:33:30.176Z,8.60
2019-05-11T03:35:58.926Z,8.60
2019-05-11T03:38:27.613Z,8.60
2019-05-11T03:40:56.299Z,8.50
2019-05-11T03:43:25.000Z,8.50
2019-05-11T03:45:53.750Z,8.40
2019-05-11T03:48:22.498Z,8.40
2019-05-11T03:50:51.134Z,8.40
2019-05-11T03:53:19.741Z,8.30
2019-05-11T03:55:49.497Z,8.30
2019-05-11T03:58:18.187Z,8.20
2019-05-11T04:00:46.876Z,8.20
2019-05-11T04:03:15.557Z,8.20
2019-05-11T04:05:44.338Z,8.10
2019-05-11T04:08:13.162Z,8.10
2019-05-11T04:10:41.922Z,8.10
2019-05-11T04:13:11.590Z,8.10
2019-05-11T04:15:40.293Z,8.10
2019-05-11T04:18:08.978Z,8.10
2019-05-11T04:20:37.591Z,8.10
2019-05-11T04:23:07.273Z,8.10
2019-05-11T04:25:35.969Z,8.10
2019-05-11T04:28:05.799Z,8.10
2019-05-11T04:30:34.483Z,8.10
2019-05-11T04:33:03.097Z,8.10
2019-05-11T04:35:31.703Z,8.10
2019-05-11T04:38:00.317Z,8.20
2019-05-11T04:40:28.960Z,8.20
2019-05-11T04:42:57.620Z,8.20
2019-05-11T04:45:26.314Z,8.30
2019-05-11T04:47:56.138Z,8.30
2019-05-11T04:50:24.826Z,8.40
2019-05-11T04:52:53.467Z,8.50
2019-05-11T04:55:22.194Z,8.50
2019-05-11T04:57:50.918Z,8.60
2019-05-11T05:00:19.568Z,8.70
2019-05-11T05:02:48.255Z,8.70
2019-05-11T05:05:16.864Z,8.80
2019-05-11T05:07:48.973Z,8.90
2019-05-11T05:10:19.933Z,9.00
2019-05-11T05:12:50.438Z,9.10
2019-05-11T05:15:16.219Z,9.30
2019-05-11T05:17:44.814Z,9.40
2019-05-11T05:20:13.513Z,9.50
2019-05-11T05:22:42.205Z,9.60
2019-05-11T05:25:10.845Z,9.70
2019-05-11T05:27:39.501Z,9.80
2019-05-11T05:30:08.323Z,9.90
2019-05-11T05:32:37.248Z,10.00
2019-05-11T05:35:05.931Z,10.10
2019-05-11T05:37:34.628Z,10.20
2019-05-11T05:40:03.391Z,10.30
2019-05-11T05:42:32.153Z,10.40
2019-05-11T05:45:00.829Z,10.40
2019-05-11T05:47:29.528Z,10.60
2019-05-11T05:49:58.177Z,10.70
2019-05-11T05:52:26.814Z,10.70
2019-05-11T05:54:55.388Z,10.80
2019-05-11T05:57:24.031Z,10.90
2019-05-11T05:59:52.788Z,11.00
2019-05-11T06:02:21.496Z,11.10
2019-05-11T06:04:51.285Z,11.20
2019-05-11T06:07:20.174Z,11.20
2019-05-11T06:09:48.857Z,11.30
2019-05-11T06:12:17.552Z,11.30
2019-05-11T06:14:47.292Z,11.40
2019-05-11T06:17:15.897Z,11.50
2019-05-11T06:19:44.603Z,11.60
2019-05-11T06:22:13.276Z,11.70
2019-05-11T06:24:41.885Z,11.80
2019-05-11T06:27:10.585Z,11.90
2019-05-11T06:29:39.351Z,12.00
2019-05-11T06:32:08.114Z,12.00
2019-05-11T06:34:36.801Z,12.20
2019-05-11T06:37:05.484Z,12.30
2019-05-11T06:39:34.212Z,12.30
2019-05-11T06:42:02.827Z,12.40
2019-05-11T06:44:31.442Z,12.50
2019-05-11T06:47:00.230Z,12.60
2019-05-11T06:49:28.829Z,12.70
2019-05-11T06:51:57.460Z,12.80
2019-05-11T06:54:26.073Z,12.90
2019-05-11T06:56:54.661Z,13.00
2019-05-11T06:59:23.270Z,13.10
2019-05-11T07:01:51.900Z,13.20
2019-05-11T07:04:20.485Z,13.20
2019-05-11T07:06:49.112Z,13.30
2019-05-11T07:09:17.733Z,13.30
2019-05-11T07:11:46.316Z,13.30
2019-05-11T07:14:20.599Z,13.40
2019-05-11T07:16:45.159Z,13.40
2019-05-11T07:19:13.762Z,13.40
2019-05-11T07:21:42.424Z,13.40
2019-05-11T07:24:11.090Z,13.50
2019-05-11T07:26:39.982Z,13.50
2019-05-11T07:29:08.657Z,13.60
2019-05-11T07:31:37.263Z,13.70
2019-05-11T07:34:08.011Z,13.70
2019-05-11T07:36:38.579Z,13.80
2019-05-11T07:39:08.315Z,13.90
2019-05-11T07:41:38.664Z,13.90
2019-05-11T07:44:06.930Z,13.90
2019-05-11T07:46:37.569Z,14.00
2019-05-11T07:49:08.755Z,14.00
2019-05-11T07:51:38.939Z,14.00
2019-05-11T07:54:08.457Z,14.00
2019-05-11T07:56:39.107Z,14.00
2019-05-11T07:59:08.042Z,14.10
2019-05-11T08:01:38.610Z,14.10
2019-05-11T08:04:07.837Z,14.10
2019-05-11T08:06:38.886Z,14.20
2019-05-11T08:09:08.390Z,14.20
2019-05-11T08:11:38.932Z,14.30
2019-05-11T08:14:08.573Z,14.40
2019-05-11T08:16:39.033Z,14.40
2019-05-11T08:19:10.555Z,14.50
2019-05-11T08:21:38.891Z,14.50
2019-05-11T08:24:09.192Z,14.60
2019-05-11T08:26:38.650Z,14.60
2019-05-11T08:29:08.093Z,14.70
2019-05-11T08:31:38.545Z,14.80
2019-05-11T08:34:08.818Z,15.00
2019-05-11T08:36:38.132Z,15.10
2019-05-11T08:39:07.806Z,15.20
2019-05-11T08:41:38.454Z,15.20
2019-05-11T08:44:08.942Z,15.30
2019-05-11T08:46:38.598Z,15.30
2019-05-11T08:49:08.637Z,15.30
2019-05-11T08:51:38.667Z,15.30
2019-05-11T08:54:08.928Z,15.40
2019-05-11T08:56:38.380Z,15.50
2019-05-11T08:59:07.985Z,15.50
2019-05-11T09:01:39.230Z,15.50
2019-05-11T09:04:08.905Z,15.60
2019-05-11T09:06:38.437Z,15.70
2019-05-11T09:09:08.875Z,15.80
2019-05-11T09:11:38.926Z,15.80
2019-05-11T09:14:08.454Z,15.90
2019-05-11T09:16:38.312Z,16.00
2019-05-11T09:19:08.749Z,16.00
2019-05-11T09:21:38.693Z,16.10
2019-05-11T09:24:08.439Z,16.10
2019-05-11T09:26:38.871Z,16.10
2019-05-11T09:29:08.796Z,16.20
2019-05-11T09:31:38.193Z,16.20
2019-05-11T09:34:08.971Z,16.20
2019-05-11T09:36:38.963Z,16.30
2019-05-11T09:39:08.528Z,16.40
2019-05-11T09:41:38.282Z,16.40
2019-05-11T09:44:32.005Z,16.40
2019-05-11T09:47:02.637Z,16.50
2019-05-11T09:49:43.819Z,16.50
2019-05-11T09:52:02.630Z,16.60
2019-05-11T09:54:31.323Z,16.70
2019-05-11T09:56:59.930Z,16.70
2019-05-11T09:59:28.529Z,16.70
2019-05-11T10:01:58.987Z,16.70
2019-05-11T10:04:28.794Z,16.70
2019-05-11T10:06:58.557Z,16.70
2019-05-11T10:09:27.981Z,16.80
2019-05-11T10:11:58.454Z,16.80
2019-05-11T10:14:29.058Z,17.00
2019-05-11T10:16:58.598Z,17.10
2019-05-11T10:19:28.444Z,17.30
2019-05-11T10:21:58.079Z,17.40
2019-05-11T10:24:28.310Z,17.40
2019-05-11T10:26:57.855Z,17.40
2019-05-11T10:29:28.728Z,17.40
2019-05-11T10:31:58.740Z,17.30
2019-05-11T10:34:28.552Z,17.30
2019-05-11T10:36:58.102Z,17.30
2019-05-11T10:39:27.992Z,17.30
2019-05-11T10:41:58.423Z,17.30
2019-05-11T10:44:28.090Z,17.30
2019-05-11T10:46:58.937Z,17.20
2019-05-11T10:49:28.891Z,17.20
2019-05-11T10:51:58.759Z,17.20
2019-05-11T10:54:28.956Z,17.20
2019-05-11T10:56:58.756Z,17.20
2019-05-11T10:59:28.386Z,17.30
2019-05-11T11:01:59.150Z,17.40
2019-05-11T11:04:28.831Z,17.50
2019-05-11T11:06:59.179Z,17.70
2019-05-11T11:09:28.363Z,17.80
2019-05-11T11:11:57.926Z,17.90
2019-05-11T11:14:28.743Z,18.00
2019-05-11T11:16:58.364Z,18.20
2019-05-11T11:19:28.917Z,18.30
2019-05-11T11:22:07.870Z,18.40
2019-05-11T11:24:28.720Z,18.40
2019-05-11T11:26:57.751Z,18.50
2019-05-11T11:29:28.580Z,18.60
2019-05-11T11:31:58.624Z,18.70
2019-05-11T11:34:27.999Z,18.80
2019-05-11T11:36:58.142Z,18.80
2019-05-11T11:39:28.246Z,18.90
2019-05-11T11:42:17.871Z,19.00
2019-05-11T11:44:48.377Z,19.00
2019-05-11T11:47:21.428Z,19.10
2019-05-11T11:49:47.664Z,19.10
2019-05-11T11:52:18.656Z,19.10
2019-05-11T11:54:47.911Z,19.00
2019-05-11T11:57:18.219Z,19.00
2019-05-11T11:59:48.165Z,18.90
2019-05-11T12:02:19.115Z,18.80
2019-05-11T12:04:48.590Z,18.70
2019-05-11T12:07:18.018Z,18.60
2019-05-11T12:09:48.466Z,18.50
2019-05-11T12:12:18.663Z,18.40
2019-05-11T12:14:48.346Z,18.30
2019-05-11T12:17:18.295Z,18.20
2019-05-11T12:19:47.891Z,18.20
2019-05-11T12:22:18.590Z,18.10
2019-05-11T12:24:48.178Z,18.00
2019-05-11T12:27:18.249Z,17.90
2019-05-11T12:29:47.698Z,17.80
2019-05-11T12:32:21.015Z,17.80
2019-05-11T12:34:49.634Z,17.70
2019-05-11T12:37:20.235Z,17.70
2019-05-11T12:39:48.475Z,17.60
2019-05-11T12:42:17.971Z,17.60
2019-05-11T12:44:48.143Z,17.60
2019-05-11T12:47:22.197Z,17.50
2019-05-11T12:49:48.380Z,17.50
2019-05-11T12:52:18.523Z,17.60
2019-05-11T12:54:47.971Z,17.60
2019-05-11T12:57:18.656Z,17.60
2019-05-11T12:59:48.753Z,17.60
2019-05-11T13:02:18.485Z,17.60
2019-05-11T13:04:47.724Z,17.50
2019-05-11T13:07:19.374Z,17.50
2019-05-11T13:09:48.476Z,17.50
2019-05-11T13:12:18.631Z,17.50
2019-05-11T13:14:48.860Z,17.60
2019-05-11T13:17:18.596Z,17.60
2019-05-11T13:19:48.108Z,17.60
2019-05-11T13:22:18.327Z,17.60
2019-05-11T13:24:48.161Z,17.60
2019-05-11T13:27:17.918Z,17.60
2019-05-11T13:29:48.612Z,17.50
2019-05-11T13:32:18.638Z,17.50
2019-05-11T13:34:48.026Z,17.40
2019-05-11T13:37:18.823Z,17.30
2019-05-11T13:39:48.580Z,17.30
2019-05-11T13:42:19.500Z,17.20
2019-05-11T13:44:47.961Z,17.20
2019-05-11T13:47:18.009Z,17.20
2019-05-11T13:49:47.962Z,17.10
2019-05-11T13:52:18.083Z,17.10
2019-05-11T13:54:48.267Z,17.10
2019-05-11T13:57:18.131Z,17.00
2019-05-11T13:59:47.749Z,17.00
2019-05-11T14:02:18.087Z,17.00
2019-05-11T14:04:48.104Z,17.00
2019-05-11T14:07:18.614Z,17.00
2019-05-11T14:10:12.818Z,17.00
2019-05-11T14:12:41.444Z,17.00
2019-05-11T14:15:10.065Z,17.00
2019-05-11T14:17:38.883Z,17.00
2019-05-11T14:20:08.914Z,17.00
2019-05-11T14:22:38.756Z,16.90
2019-05-11T14:25:08.148Z,16.90
2019-05-11T14:27:39.118Z,16.90
2019-05-11T14:30:08.530Z,16.90
2019-05-11T14:32:38.950Z,16.90
2019-05-11T14:35:11.626Z,16.80
2019-05-11T14:37:38.270Z,16.80
2019-05-11T14:40:08.797Z,16.70
2019-05-11T14:42:38.239Z,16.70
2019-05-11T14:45:08.479Z,16.60
2019-05-11T14:47:38.673Z,16.50
2019-05-11T14:50:08.579Z,16.40
2019-05-11T14:52:38.808Z,16.40
2019-05-11T14:55:08.257Z,16.30
2019-05-11T14:57:39.391Z,16.20
2019-05-11T15:00:08.301Z,16.10
2019-05-11T15:02:58.534Z,16.10
2019-05-11T15:05:28.302Z,16.00
2019-05-11T15:07:58.156Z,16.00
2019-05-11T15:10:27.728Z,15.90
2019-05-11T15:12:58.929Z,15.90
2019-05-11T15:15:27.938Z,15.80
2019-05-11T15:17:58.155Z,15.80
2019-05-11T15:20:28.412Z,15.80
2019-05-11T15:22:58.163Z,15.70
2019-05-11T15:25:28.946Z,15.70
2019-05-11T15:27:58.989Z,15.70
2019-05-11T15:30:28.774Z,15.70
2019-05-11T15:32:58.487Z,15.60
2019-05-11T15:35:28.445Z,15.60
2019-05-11T15:37:58.242Z,15.60
2019-05-11T15:40:27.839Z,15.60
2019-05-11T15:42:58.562Z,15.60
2019-05-11T15:45:27.823Z,15.60
2019-05-11T15:47:58.724Z,15.60
2019-05-11T15:50:29.134Z,15.50
2019-05-11T15:52:58.216Z,15.50
2019-05-11T15:55:27.867Z,15.50
2019-05-11T15:57:56.713Z,15.50
2019-05-11T16:00:25.476Z,15.50
2019-05-11T16:02:54.047Z,15.50
2019-05-11T16:05:22.764Z,15.50
2019-05-11T16:07:51.345Z,15.50
2019-05-11T16:10:20.016Z,15.50
2019-05-11T16:12:49.029Z,15.50
2019-05-11T16:15:29.822Z,15.40
2019-05-11T16:17:58.578Z,15.40
2019-05-11T16:20:28.544Z,15.40
2019-05-11T16:22:57.409Z,15.40
2019-05-11T16:25:27.999Z,15.40
2019-05-11T16:27:56.914Z,15.40
2019-05-11T16:30:25.542Z,15.30
2019-05-11T16:32:54.125Z,15.30
2019-05-11T16:35:22.737Z,15.30
2019-05-11T16:37:51.347Z,15.20
2019-05-11T16:40:20.916Z,15.20
2019-05-11T16:42:49.943Z,15.20
2019-05-11T16:45:23.303Z,15.20
2019-05-11T16:47:50.373Z,15.20
2019-05-11T16:50:18.983Z,15.10
2019-05-11T16:52:48.356Z,15.10
2019-05-11T16:55:18.316Z,15.10
2019-05-11T16:57:48.354Z,15.00
2019-05-11T17:00:17.430Z,15.00
2019-05-11T17:02:48.644Z,15.00
2019-05-11T17:05:25.913Z,14.90
2019-05-11T17:07:48.388Z,14.90
2019-05-11T17:10:17.921Z,14.90
2019-05-11T17:12:48.495Z,14.90
2019-05-11T17:15:18.575Z,14.90
2019-05-11T17:17:48.631Z,14.80
2019-05-11T17:20:18.788Z,14.80
2019-05-11T17:22:48.271Z,14.80
2019-05-11T17:25:19.258Z,14.80
2019-05-11T17:27:48.577Z,14.80
2019-05-11T17:30:19.155Z,14.80
2019-05-11T17:32:49.267Z,14.80
2019-05-11T17:35:18.651Z,14.80
2019-05-11T17:37:48.525Z,14.80
2019-05-11T17:40:20.430Z,14.80
2019-05-11T17:42:48.259Z,14.80
2019-05-11T17:45:18.839Z,14.80
2019-05-11T17:47:47.422Z,14.80
2019-05-11T17:50:16.054Z,14.80
2019-05-11T17:52:44.661Z,14.80
2019-05-11T17:55:13.276Z,14.70
2019-05-11T17:57:42.023Z,14.70
2019-05-11T18:00:10.701Z,14.70
2019-05-11T18:02:39.652Z,14.60
2019-05-11T18:05:08.921Z,14.60
2019-05-11T18:07:38.520Z,14.60
2019-05-11T18:10:08.173Z,14.50
2019-05-11T18:12:39.067Z,14.50
2019-05-11T18:15:08.202Z,14.50
2019-05-11T18:17:37.219Z,14.50
2019-05-11T18:20:16.869Z,14.40
2019-05-11T18:22:39.108Z,14.40
2019-05-11T18:25:28.743Z,14.40
2019-05-11T18:27:58.195Z,14.40
2019-05-11T18:30:29.317Z,14.40
2019-05-11T18:32:59.396Z,14.40
2019-05-11T18:35:28.496Z,14.30
2019-05-11T18:37:57.151Z,14.40
2019-05-11T18:40:25.757Z,14.40
2019-05-11T18:42:54.382Z,14.40
2019-05-11T18:45:22.968Z,14.40
2019-05-11T18:48:00.202Z,14.40
2019-05-11T18:50:30.976Z,14.40
2019-05-11T18:52:59.090Z,14.40
2019-05-11T18:55:28.196Z,14.40
2019-05-11T18:57:58.163Z,14.30
2019-05-11T19:00:27.671Z,14.40
2019-05-11T19:02:57.983Z,14.30
2019-05-11T19:05:28.995Z,14.40
2019-05-11T19:07:58.431Z,14.30
2019-05-11T19:10:27.779Z,14.40
2019-05-11T19:12:58.748Z,14.40
2019-05-11T19:15:26.709Z,14.40
2019-05-11T19:17:57.907Z,14.40
2019-05-11T19:20:25.602Z,14.40
2019-05-11T19:22:54.212Z,14.40
2019-05-11T19:25:22.971Z,14.40
2019-05-11T19:27:51.582Z,14.30
2019-05-11T19:30:20.265Z,14.30
2019-05-11T19:32:53.186Z,14.30
2019-05-11T19:35:22.222Z,14.30
2019-05-11T19:37:50.978Z,14.30
2019-05-11T19:40:19.564Z,14.30
2019-05-11T19:42:54.897Z,14.30
2019-05-11T19:45:24.466Z,14.30
2019-05-11T19:47:57.810Z,14.30
2019-05-11T19:50:27.203Z,14.30
2019-05-11T19:52:57.989Z,14.30
2019-05-11T19:55:28.555Z,14.30
2019-05-11T19:58:19.250Z,14.30
2019-05-11T20:00:48.813Z,14.30
2019-05-11T20:03:18.408Z,14.30
2019-05-11T20:05:48.513Z,14.30
2019-05-11T20:08:18.413Z,14.20
2019-05-11T20:10:48.699Z,14.20
2019-05-11T20:13:18.025Z,14.20
2019-05-11T20:15:48.512Z,14.20
2019-05-11T20:18:18.429Z,14.20
2019-05-11T20:20:48.055Z,14.10
2019-05-11T20:23:16.919Z,14.10
2019-05-11T20:25:47.658Z,14.10
2019-05-11T20:28:18.016Z,14.10
2019-05-11T20:30:48.101Z,14.10
2019-05-11T20:33:18.731Z,14.10
2019-05-11T20:35:48.662Z,14.00
2019-05-11T20:38:18.800Z,14.00
2019-05-11T20:40:48.473Z,14.00
2019-05-11T20:43:18.648Z,14.00
2019-05-11T20:45:48.620Z,14.00
2019-05-11T20:48:18.514Z,14.00
2019-05-11T20:50:48.346Z,13.90
2019-05-11T20:53:18.041Z,13.90
2019-05-11T20:55:47.894Z,13.90
2019-05-11T20:58:18.798Z,13.90
2019-05-11T21:00:49.084Z,13.90
2019-05-11T21:03:17.928Z,13.90
2019-05-11T21:05:48.286Z,13.90
2019-05-11T21:08:18.004Z,13.80
2019-05-11T21:10:48.818Z,13.90
2019-05-11T21:13:17.894Z,13.90
2019-05-11T21:15:47.864Z,13.90
2019-05-11T21:18:18.394Z,13.90
2019-05-11T21:20:48.350Z,13.80
2019-05-11T21:23:18.604Z,13.80
2019-05-11T21:25:47.533Z,13.80
2019-05-11T21:28:16.186Z,13.80
2019-05-11T21:30:44.817Z,13.80
2019-05-11T21:33:13.513Z,13.80
2019-05-11T21:35:42.193Z,13.80
2019-05-11T21:38:10.809Z,13.70
2019-05-11T21:40:39.418Z,13.80
2019-05-11T21:43:08.722Z,13.70
2019-05-11T21:45:40.529Z,13.70
2019-05-11T21:48:07.901Z,13.70
2019-05-11T21:50:37.162Z,13.70
2019-05-11T21:53:08.135Z,13.70
2019-05-11T21:55:37.773Z,13.60
2019-05-11T21:58:08.882Z,13.70
2019-05-11T22:00:38.620Z,13.70
2019-05-11T22:03:10.200Z,13.60
2019-05-11T22:05:38.405Z,13.60
2019-05-11T22:08:08.590Z,13.60
2019-05-11T22:10:38.596Z,13.60
2019-05-11T22:13:07.427Z,13.60
2019-05-11T22:15:38.333Z,13.60
2019-05-11T22:18:07.971Z,13.60
2019-05-11T22:20:38.029Z,13.60
2019-05-11T22:23:08.463Z,13.50
2019-05-11T22:25:38.154Z,13.60
2019-05-11T22:28:08.509Z,13.60
2019-05-11T22:30:39.276Z,13.60
2019-05-11T22:33:08.805Z,13.60
2019-05-11T22:35:38.380Z,13.60
2019-05-11T22:38:08.356Z,13.60
2019-05-11T22:41:03.344Z,13.60
2019-05-11T22:43:31.949Z,13.60
2019-05-11T22:46:00.566Z,13.60
2019-05-11T22:48:29.158Z,13.50
2019-05-11T22:50:58.594Z,13.50
2019-05-11T22:53:43.343Z,13.40
2019-05-11T22:55:57.692Z,13.40
2019-05-11T22:58:26.313Z,13.30
2019-05-11T23:00:54.908Z,13.30
2019-05-11T23:03:23.522Z,13.20
2019-05-11T23:05:52.146Z,13.20
2019-05-11T23:08:20.752Z,13.10
2019-05-11T23:10:49.936Z,13.10
2019-05-11T23:13:18.785Z,13.00
2019-05-11T23:15:47.819Z,12.90
2019-05-11T23:18:18.008Z,12.80
2019-05-11T23:20:47.867Z,12.80
2019-05-11T23:23:17.798Z,12.80
2019-05-11T23:25:46.589Z,12.70
2019-05-11T23:28:15.206Z,12.70
2019-05-11T23:30:43.781Z,12.70
2019-05-11T23:33:12.392Z,12.70
2019-05-11T23:35:41.004Z,12.70
2019-05-11T23:38:09.637Z,12.60
2019-05-11T23:40:38.282Z,12.60
2019-05-11T23:43:08.785Z,12.60
2019-05-11T23:45:38.233Z,12.50
2019-05-11T23:48:07.000Z,12.50
2019-05-11T23:50:35.600Z,12.50
2019-05-11T23:53:06.529Z,12.40
2019-05-11T23:55:34.461Z,12.40
2019-05-11T23:58:03.060Z,12.40
